Bookmark and Share
Track history (hours):
 

Taiseimaru

Last reported at 2014-Apr-20 10:19 UTC. Time now 2014-Apr-20 11:43 UTC.
Position N 34°53' E 139°20'.

Length 84 m; draft 5 m.

Type: Cargo ship. MMSI: 431500568.

NotesDate/timePositionNaut miles runAvg speedWind from/ knotsBaromVisibWave heightAir tempDewpointWater temp
2014-Apr-20 10:19N 34°53' E 139°20'912.0
2014-Apr-20 09:33N 34°59' E 139°29'1212.1
2014-Apr-20 08:33N 35°07' E 139°40'1110.9
2014-Apr-20 07:33N 35°17' E 139°45'1110.6
2014-Apr-20 06:33N 35°27' E 139°43'1 1.0
2014-Apr-20 05:33N 35°28' E 139°43'0 0.0
2014-Apr-20 04:33N 35°28' E 139°42'0 0.0
2014-Apr-20 03:33N 35°28' E 139°42'0 0.0
2014-Apr-20 02:33N 35°28' E 139°42'0 0.0
2014-Apr-20 01:33N 35°28' E 139°42'0 0.0
2014-Apr-20 00:33N 35°28' E 139°42'0 0.0
2014-Apr-19 23:33N 35°28' E 139°43'4 4.5
2014-Apr-19 22:33N 35°25' E 139°46'0 0.2
2014-Apr-19 21:31N 35°24' E 139°46'0 0.0
2014-Apr-19 20:31N 35°24' E 139°46'0 0.0
2014-Apr-19 19:31N 35°24' E 139°46'0 0.0
2014-Apr-19 18:31N 35°24' E 139°46'0 0.0
2014-Apr-19 17:31N 35°24' E 139°46'0 0.0
2014-Apr-19 16:31N 35°24' E 139°46'0 0.0
2014-Apr-19 15:31N 35°24' E 139°46'0 0.0
2014-Apr-19 14:31N 35°24' E 139°46'0 0.0
2014-Apr-19 13:31N 35°24' E 139°46'0 0.0
2014-Apr-19 12:34N 35°24' E 139°46'0 0.0
2014-Apr-19 11:31N 35°24' E 139°46'0 0.0
2014-Apr-19 10:33N 35°24' E 139°46'0 0.0
2014-Apr-19 09:30N 35°24' E 139°46'0 0.0
2014-Apr-19 08:30N 35°24' E 139°46'0 0.1
2014-Apr-19 07:33N 35°24' E 139°46'10 9.7
2014-Apr-19 06:33N 35°15' E 139°47'1010.5
2014-Apr-19 05:33N 35°05' E 139°42'1110.9
2014-Apr-19 04:32N 34°58' E 139°32'  
2014-Apr-16 05:32N 34°35' E 134°52'8 8.1
2014-Apr-16 04:33N 34°37' E 135°02'9 8.7
2014-Apr-16 03:33N 34°28' E 135°03'1211.1
2014-Apr-16 02:28N 34°17' E 134°59'1111.5
2014-Apr-16 01:33N 34°06' E 135°01'231 8.9
2014-Apr-14 23:33N 35°02' E 139°33'1211.7
2014-Apr-14 22:34N 35°10' E 139°44'1111.1
2014-Apr-14 21:34N 35°21' E 139°42'4 4.0
2014-Apr-14 20:32N 35°24' E 139°45'0 0.0
2014-Apr-14 19:32N 35°24' E 139°45'0 0.1
2014-Apr-14 18:32N 35°24' E 139°45'0 0.0
2014-Apr-14 17:32N 35°25' E 139°45'0 0.0
2014-Apr-14 16:32N 35°25' E 139°45'0 0.0
2014-Apr-14 15:31N 35°24' E 139°45'0 0.0
2014-Apr-14 14:31N 35°24' E 139°45'0 0.1
2014-Apr-14 13:31N 35°24' E 139°46'0 0.0
2014-Apr-14 11:31N 35°24' E 139°45'0 0.1
2014-Apr-14 10:31N 35°24' E 139°45'0 0.0
2014-Apr-14 09:31N 35°24' E 139°45'0 0.1
2014-Apr-14 08:31N 35°25' E 139°45'0 0.0
2014-Apr-14 07:31N 35°25' E 139°45'4 4.4
2014-Apr-14 06:34N 35°28' E 139°42'0 0.2
2014-Apr-14 05:32N 35°28' E 139°43'4 0.5
2014-Apr-13 22:33N 35°25' E 139°45'1 1.4
2014-Apr-13 21:32N 35°23' E 139°45'0 0.0
2014-Apr-13 20:32N 35°23' E 139°45'0 0.0
2014-Apr-13 19:32N 35°23' E 139°45'0 0.0
2014-Apr-13 18:32N 35°23' E 139°45'0 0.1
2014-Apr-13 17:32N 35°24' E 139°45'0 0.0
2014-Apr-13 16:32N 35°24' E 139°45'0 0.0
2014-Apr-13 15:32N 35°24' E 139°45'0 0.0
2014-Apr-13 14:32N 35°24' E 139°45'0 0.1
2014-Apr-13 13:32N 35°24' E 139°45'0 0.1
2014-Apr-13 12:32N 35°24' E 139°45'0 0.0
2014-Apr-13 11:31N 35°24' E 139°45'0 0.0
2014-Apr-13 10:31N 35°24' E 139°45'0 0.1
2014-Apr-13 09:31N 35°24' E 139°45'0 0.0
2014-Apr-13 08:31N 35°24' E 139°45'0 0.1
2014-Apr-13 07:31N 35°24' E 139°45'0 0.0
2014-Apr-13 06:31N 35°24' E 139°45'0 0.0
2014-Apr-13 05:31N 35°24' E 139°45'0 0.0
2014-Apr-13 04:28N 35°24' E 139°45'0 0.1
2014-Apr-13 03:31N 35°24' E 139°45'0 0.0
2014-Apr-13 02:31N 35°24' E 139°45'1 1.2
2014-Apr-13 01:33N 35°23' E 139°44'1010.3
2014-Apr-13 00:33N 35°12' E 139°47'1110.5
2014-Apr-12 23:33N 35°03' E 139°40'1111.1
2014-Apr-12 22:32N 34°56' E 139°29'  

Dump ship's entire track history

sailing weather and tide predictions

Taiseimaru — JL6483 — position and weather